createdAt,value
2023-04-23T00:04:16.295Z,2.80
2023-04-23T00:15:16.024Z,3.70
2023-04-23T00:26:15.915Z,3.50
2023-04-23T00:37:15.780Z,3.70
2023-04-23T00:48:15.670Z,3.20
2023-04-23T00:59:15.529Z,4.00
2023-04-23T01:10:15.399Z,3.50
2023-04-23T01:21:15.285Z,3.80
2023-04-23T01:32:15.160Z,4.80
2023-04-23T01:43:15.043Z,3.00
2023-04-23T01:54:14.907Z,3.90
2023-04-23T02:05:14.774Z,4.10
2023-04-23T02:16:14.691Z,3.40
2023-04-23T02:27:14.525Z,4.20
2023-04-23T02:38:14.397Z,4.40
2023-04-23T02:49:14.275Z,3.40
2023-04-23T03:00:14.149Z,3.80
2023-04-23T03:11:14.046Z,4.30
2023-04-23T03:22:13.912Z,4.30
2023-04-23T03:33:13.769Z,3.80
2023-04-23T03:44:13.646Z,4.20
2023-04-23T03:55:13.517Z,4.70
2023-04-23T04:06:13.410Z,4.10
2023-04-23T04:17:13.283Z,2.90
2023-04-23T04:28:13.144Z,3.70
2023-04-23T04:39:13.018Z,3.40
2023-04-23T04:50:12.893Z,2.90
2023-04-23T05:01:12.801Z,2.90
2023-04-23T05:12:12.654Z,3.30
2023-04-23T05:23:12.528Z,4.20
2023-04-23T05:34:12.421Z,4.00
2023-04-23T05:45:12.263Z,3.60
2023-04-23T05:56:12.137Z,4.20
2023-04-23T06:07:12.007Z,4.00
2023-04-23T06:18:11.972Z,4.10
2023-04-23T06:29:11.753Z,4.40
2023-04-23T06:40:11.633Z,4.20
2023-04-23T06:51:11.512Z,3.30
2023-04-23T07:02:11.381Z,3.10
2023-04-23T07:13:11.273Z,2.90
2023-04-23T07:24:11.213Z,2.60
2023-04-23T07:35:11.025Z,3.80
2023-04-23T07:46:10.912Z,3.50
2023-04-23T07:57:10.792Z,3.10
2023-04-23T08:08:10.662Z,3.00
2023-04-23T08:19:10.532Z,3.30
2023-04-23T08:30:10.412Z,2.70
2023-04-23T08:41:10.275Z,3.00
2023-04-23T08:52:10.190Z,3.00
2023-04-23T09:03:10.269Z,3.00
2023-04-23T09:14:09.900Z,2.60
2023-04-23T09:25:09.791Z,2.30
2023-04-23T09:36:09.826Z,2.50
2023-04-23T09:47:09.535Z,3.10
2023-04-23T09:58:09.401Z,3.20
2023-04-23T10:09:09.276Z,3.00
2023-04-23T10:20:09.168Z,2.80
2023-04-23T10:31:09.080Z,2.20
2023-04-23T10:42:08.968Z,2.70
2023-04-23T10:53:09.789Z,2.40
2023-04-23T11:04:08.794Z,2.00
2023-04-23T11:15:08.529Z,2.50
2023-04-23T11:26:08.412Z,2.50
2023-04-23T11:37:08.283Z,2.60
2023-04-23T11:48:08.209Z,2.20
2023-04-23T11:59:08.060Z,2.00
2023-04-23T12:10:07.912Z,2.10
2023-04-23T12:21:07.944Z,1.60
2023-04-23T12:22:02.782Z,1.70
2023-04-23T12:23:02.767Z,2.00
2023-04-23T12:34:07.642Z,1.70
2023-04-23T12:35:02.635Z,1.50
2023-04-23T12:36:02.643Z,1.70
2023-04-23T12:47:07.737Z,1.60
2023-04-23T12:48:02.511Z,1.70
2023-04-23T12:49:02.485Z,1.60
2023-04-23T13:00:07.381Z,1.80
2023-04-23T13:01:02.382Z,1.70
2023-04-23T13:02:02.988Z,1.60
2023-04-23T13:13:07.226Z,1.80
2023-04-23T13:24:07.157Z,1.70
2023-04-23T13:35:06.965Z,1.10
2023-04-23T13:46:06.910Z,1.00
2023-04-23T13:57:06.725Z,1.10
2023-04-23T14:08:06.629Z,1.20
2023-04-23T14:19:06.520Z,1.30
2023-04-23T14:30:06.347Z,1.50
2023-04-23T14:41:06.219Z,1.10
2023-04-23T14:52:06.114Z,1.70
2023-04-23T15:03:06.180Z,1.60
2023-04-23T15:14:05.852Z,1.40
2023-04-23T15:25:05.723Z,1.50
2023-04-23T15:36:05.600Z,1.40
2023-04-23T15:47:05.486Z,1.50
2023-04-23T15:58:05.534Z,2.70
2023-04-23T16:09:05.219Z,1.40
2023-04-23T16:20:05.104Z,2.20
2023-04-23T16:31:04.985Z,1.70
2023-04-23T16:42:04.878Z,1.10
2023-04-23T16:53:04.736Z,0.90
2023-04-23T17:04:04.853Z,2.00
2023-04-23T17:15:04.485Z,1.80
2023-04-23T17:26:04.343Z,1.40
2023-04-23T17:37:04.216Z,1.30
2023-04-23T17:48:04.191Z,1.30
2023-04-23T17:59:03.974Z,1.30
2023-04-23T18:10:03.838Z,1.60
2023-04-23T18:21:03.776Z,1.40
2023-04-23T18:32:03.587Z,1.70
2023-04-23T18:43:03.488Z,2.00
2023-04-23T18:54:03.355Z,2.10
2023-04-23T19:05:03.271Z,1.50
2023-04-23T19:16:03.137Z,1.90
2023-04-23T19:27:02.976Z,3.10
2023-04-23T19:38:02.842Z,1.70
2023-04-23T19:49:02.739Z,1.40
2023-04-23T20:00:02.606Z,1.40
2023-04-23T20:11:02.476Z,1.20
2023-04-23T20:22:02.352Z,1.40
2023-04-23T20:33:02.270Z,1.50
2023-04-23T20:44:02.108Z,1.30
2023-04-23T20:55:01.999Z,1.40
2023-04-23T21:06:01.858Z,1.30
2023-04-23T21:17:01.739Z,0.90
2023-04-23T21:28:01.623Z,1.40
2023-04-23T21:39:01.484Z,1.00
2023-04-23T21:50:01.361Z,1.20
2023-04-23T22:01:01.318Z,1.20
2023-04-23T22:12:02.571Z,2.00
2023-04-23T22:23:00.976Z,1.00
2023-04-23T22:34:00.861Z,1.30
2023-04-23T22:45:00.728Z,0.80
2023-04-23T22:56:00.602Z,1.00
2023-04-23T23:07:00.556Z,1.60
2023-04-23T23:18:00.384Z,1.10
2023-04-23T23:29:00.224Z,2.00
2023-04-23T23:40:00.206Z,1.20
2023-04-23T23:51:00.004Z,1.40
